Time;durP1;ratioP1;P1;durP2;ratioP2;P2;SDS_P1;SDS_P2;PMS_P1;PMS_P2;Temp;Humidity;BMP_temperature;BMP_pressure;BME280_temperature;BME280_humidity;BME280_pressure;Samples;Min_cycle;Max_cycle;Signal;HPM_P1;HPM_P2
2022/01/15 00:00:52;;;;;;;4.60;2.72;;;;;;;6.70;55.03;99661.84;5050483;28;20021;-38
2022/01/15 00:03:17;;;;;;;5.10;3.00;;;;;;;7.02;54.29;99671.25;5050093;28;20025;-38
2022/01/15 00:05:43;;;;;;;5.43;2.97;;;;;;;7.00;54.71;99667.97;5050287;28;20021;-38
2022/01/15 00:08:08;;;;;;;4.78;2.45;;;;;;;6.98;54.62;99683.22;5050513;28;20060;-38
2022/01/15 00:10:34;;;;;;;6.40;2.65;;;;;;;7.09;54.63;99663.44;5050163;28;20028;-38
2022/01/15 00:13:00;;;;;;;6.20;2.75;;;;;;;6.79;55.56;99688.03;5050028;28;20021;-38
2022/01/15 00:15:35;;;;;;;5.85;3.10;;;;;;;6.92;55.59;99676.81;5049929;28;20021;-38
2022/01/15 00:18:06;;;;;;;5.72;2.92;;;;;;;6.97;55.13;99686.88;5050200;28;20031;-38
2022/01/15 00:20:31;;;;;;;4.97;2.90;;;;;;;7.18;55.32;99686.16;5050066;28;20036;-37
2022/01/15 00:22:58;;;;;;;6.55;3.00;;;;;;;6.93;55.84;99704.09;5049968;28;20021;-37
2022/01/15 00:25:25;;;;;;;4.60;2.97;;;;;;;7.36;54.01;99691.88;5049610;28;20021;-38
2022/01/15 00:27:50;;;;;;;7.22;2.75;;;;;;;7.18;54.59;99707.34;5049832;28;20517;-38
2022/01/15 00:30:16;;;;;;;4.43;2.80;;;;;;;6.92;55.91;99707.75;5049256;28;20111;-38
2022/01/15 00:32:41;;;;;;;5.13;2.90;;;;;;;6.99;55.81;99709.50;5049425;28;20032;-38
2022/01/15 00:35:08;;;;;;;6.35;2.88;;;;;;;6.93;56.13;99725.25;5049344;28;20029;-37
2022/01/15 00:37:33;;;;;;;4.30;2.53;;;;;;;7.01;55.88;99738.44;5049503;28;20044;-38
2022/01/15 00:40:00;;;;;;;5.50;3.10;;;;;;;6.92;56.24;99742.97;5049047;28;20044;-36
2022/01/15 00:42:26;;;;;;;7.38;3.10;;;;;;;6.86;55.97;99748.97;5048851;28;20480;-39
2022/01/15 00:44:52;;;;;;;5.00;2.78;;;;;;;6.80;56.21;99761.09;5049249;28;20109;-36
2022/01/15 00:47:18;;;;;;;4.40;2.88;;;;;;;6.84;56.64;99751.00;5048894;28;20035;-37
2022/01/15 00:49:43;;;;;;;4.07;2.75;;;;;;;6.70;56.34;99768.47;5049021;28;20024;-37
2022/01/15 00:52:09;;;;;;;4.50;2.63;;;;;;;6.74;56.67;99766.25;5050271;28;20032;-36
2022/01/15 00:54:34;;;;;;;5.82;3.30;;;;;;;6.97;56.24;99767.06;5052722;28;20036;-36
2022/01/15 00:57:00;;;;;;;4.60;2.72;;;;;;;6.85;56.19;99765.84;5053970;28;20660;-37
2022/01/15 00:59:25;;;;;;;4.50;2.97;;;;;;;7.06;55.77;99759.88;5053628;28;20373;-37
2022/01/15 01:01:50;;;;;;;5.50;2.92;;;;;;;7.08;56.20;99760.50;5053763;28;20029;-37
2022/01/15 01:04:16;;;;;;;6.35;2.97;;;;;;;6.87;56.42;99758.56;5053701;28;20025;-37
2022/01/15 01:06:41;;;;;;;7.55;2.97;;;;;;;7.08;55.95;99764.97;5054564;28;20028;-38
2022/01/15 01:09:07;;;;;;;4.43;2.92;;;;;;;6.92;56.24;99760.69;5054016;28;20049;-38
2022/01/15 01:11:45;;;;;;;4.80;2.78;;;;;;;6.58;56.68;99754.81;5054282;28;20029;-37
2022/01/15 01:24:48;;;;;;;4.28;2.50;;;;;;;7.20;54.58;99755.63;5053930;28;20693;-37
2022/01/15 01:27:22;;;;;;;4.22;2.50;;;;;;;7.17;54.54;99775.31;5054169;28;20028;-37
2022/01/15 01:34:57;;;;;;;4.32;2.63;;;;;;;6.86;54.43;99778.09;5053320;28;20508;-38
2022/01/15 01:37:35;;;;;;;3.28;2.47;;;;;;;6.94;54.93;99769.25;5053517;28;20021;-38
2022/01/15 01:40:17;;;;;;;5.30;2.83;;;;;;;7.02;53.84;99780.56;5053221;28;20033;-38
2022/01/15 01:42:52;;;;;;;6.20;2.30;;;;;;;7.22;54.27;99791.47;5053714;28;20025;-36
2022/01/15 01:45:17;;;;;;;3.80;2.17;;;;;;;7.18;53.53;99794.69;5053380;28;20431;-36
2022/01/15 01:47:43;;;;;;;3.88;2.70;;;;;;;7.21;53.14;99789.00;5053223;28;20535;-37
2022/01/15 01:50:10;;;;;;;4.50;2.65;;;;;;;7.20;53.71;99790.03;5053553;28;20028;-38
2022/01/15 01:52:36;;;;;;;4.57;2.58;;;;;;;7.02;54.40;99785.03;5053557;28;20422;-37
2022/01/15 01:55:01;;;;;;;4.65;2.60;;;;;;;6.91;54.33;99785.47;5053119;28;20477;-37
2022/01/15 01:57:26;;;;;;;4.75;2.70;;;;;;;6.72;54.63;99778.84;5053308;28;20100;-37
2022/01/15 01:59:52;;;;;;;4.15;2.45;;;;;;;6.92;54.93;99785.31;5051885;28;20542;-37
2022/01/15 02:02:17;;;;;;;3.78;2.47;;;;;;;6.92;54.57;99789.78;5053260;28;20032;-37
2022/01/15 02:04:43;;;;;;;7.55;2.50;;;;;;;6.77;55.73;99798.47;5052513;28;20021;-37
2022/01/15 02:07:08;;;;;;;4.93;2.63;;;;;;;6.81;55.44;99791.00;5053373;28;20037;-37
2022/01/15 02:09:34;;;;;;;3.20;2.05;;;;;;;6.90;55.94;99789.94;5053088;28;20025;-37
2022/01/15 02:11:59;;;;;;;5.40;2.60;;;;;;;6.84;55.88;99785.38;5052980;28;20033;-37
2022/01/15 02:14:29;;;;;;;3.80;2.58;;;;;;;6.98;55.73;99786.41;5052712;28;20021;-37
2022/01/15 02:16:55;;;;;;;3.85;2.60;;;;;;;6.88;55.99;99780.56;5053112;28;20033;-38
2022/01/15 02:19:21;;;;;;;5.30;2.53;;;;;;;6.79;56.66;99793.81;5053237;28;20040;-37
2022/01/15 02:24:12;;;;;;;5.25;2.55;;;;;;;6.97;55.87;99785.59;5052962;28;20025;-38
2022/01/15 02:26:39;;;;;;;4.32;2.83;;;;;;;6.76;56.82;99788.06;5052671;28;20618;-38
2022/01/15 02:29:05;;;;;;;4.07;2.65;;;;;;;6.72;57.12;99784.97;5052685;28;20033;-38
2022/01/15 02:31:30;;;;;;;6.20;2.75;;;;;;;6.85;56.46;99793.13;5053329;28;20078;-38
2022/01/15 02:33:57;;;;;;;4.40;2.92;;;;;;;6.96;56.50;99812.22;5051544;28;20104;-39
2022/01/15 02:36:28;;;;;;;5.05;2.83;;;;;;;7.12;56.68;99819.19;5051247;28;20025;-37
2022/01/15 02:38:53;;;;;;;6.22;3.30;;;;;;;6.96;56.97;99814.88;5052377;28;20037;-37
2022/01/15 02:41:33;;;;;;;4.57;2.85;;;;;;;6.74;57.42;99811.22;5051267;28;20044;-39
2022/01/15 02:43:59;;;;;;;4.63;2.90;;;;;;;7.01;56.90;99825.75;5052166;28;20056;-37
2022/01/15 02:48:57;;;;;;;4.55;2.92;;;;;;;6.83;57.85;99841.91;5051762;28;20036;-37
2022/01/15 02:51:24;;;;;;;7.43;3.30;;;;;;;6.53;58.94;99825.94;5052379;28;20049;-37
2022/01/15 02:53:55;;;;;;;6.25;3.15;;;;;;;6.58;58.93;99822.75;5052349;28;20166;-37
2022/01/15 02:56:32;;;;;;;4.57;3.05;;;;;;;6.57;59.16;99835.16;5051629;28;20495;-37
2022/01/15 02:58:58;;;;;;;5.35;3.40;;;;;;;6.52;58.89;99837.50;5052378;28;20029;-37
2022/01/15 03:01:23;;;;;;;5.30;3.00;;;;;;;6.56;58.93;99835.34;5052414;28;20025;-37
2022/01/15 03:03:49;;;;;;;4.63;3.08;;;;;;;6.53;59.51;99847.09;5052278;28;20029;-37
2022/01/15 03:06:16;;;;;;;5.97;3.25;;;;;;;6.42;60.13;99837.72;5052121;28;20456;-38
2022/01/15 03:08:42;;;;;;;4.93;3.13;;;;;;;6.39;60.08;99832.78;5051842;28;20049;-37
2022/01/15 03:11:08;;;;;;;5.80;3.30;;;;;;;6.30;60.96;99840.91;5052115;28;20032;-37
2022/01/15 03:13:34;;;;;;;4.97;2.88;;;;;;;5.93;62.30;99835.28;5050546;28;20024;-37
2022/01/15 03:16:00;;;;;;;5.43;3.10;;;;;;;6.29;61.29;99834.81;5050989;28;20404;-37
2022/01/15 03:18:25;;;;;;;5.70;3.53;;;;;;;6.13;61.42;99833.09;5051900;28;20507;-37
2022/01/15 03:20:51;;;;;;;6.38;3.30;;;;;;;6.15;61.45;99840.81;5051847;28;20033;-37
2022/01/15 03:23:16;;;;;;;4.78;3.13;;;;;;;6.37;60.87;99831.31;5052028;28;20111;-46
2022/01/15 03:25:42;;;;;;;5.65;3.30;;;;;;;6.40;60.58;99839.72;5051813;28;20074;-37
2022/01/15 03:28:08;;;;;;;5.53;3.20;;;;;;;6.41;61.29;99829.97;5052028;28;20036;-38
2022/01/15 03:30:33;;;;;;;5.28;3.15;;;;;;;6.12;61.98;99847.28;5051901;28;20028;-37
2022/01/15 03:32:59;;;;;;;5.13;3.13;;;;;;;6.54;61.17;99846.06;5051778;28;20029;-37
2022/01/15 03:35:24;;;;;;;4.82;3.00;;;;;;;6.58;60.58;99836.78;5050584;28;20564;-37
2022/01/15 03:37:50;;;;;;;5.40;3.30;;;;;;;6.34;61.39;99856.28;5051538;28;20105;-37
2022/01/15 03:40:15;;;;;;;5.63;3.30;;;;;;;6.36;61.46;99862.22;5051690;28;20029;-37
2022/01/15 03:42:41;;;;;;;6.13;3.60;;;;;;;6.57;60.94;99864.25;5051877;28;20067;-37
2022/01/15 03:45:06;;;;;;;6.75;3.50;;;;;;;6.78;60.43;99863.63;5051483;28;20029;-37
2022/01/15 03:47:32;;;;;;;6.00;3.40;;;;;;;6.68;60.28;99862.19;5051309;28;20032;-37
2022/01/15 03:49:57;;;;;;;6.13;2.92;;;;;;;6.51;60.75;99859.66;5051777;28;20033;-37
2022/01/15 03:52:23;;;;;;;5.65;3.40;;;;;;;6.60;61.16;99865.72;5051218;28;20389;-37
2022/01/15 03:54:48;;;;;;;7.65;3.25;;;;;;;6.49;61.16;99874.84;5051183;28;20048;-37
2022/01/15 03:57:14;;;;;;;6.53;3.58;;;;;;;6.42;61.47;99890.59;5051196;28;20024;-37
2022/01/15 03:59:40;;;;;;;6.05;3.72;;;;;;;6.54;61.75;99892.84;5051420;28;20025;-37
2022/01/15 04:02:06;;;;;;;6.47;3.15;;;;;;;6.41;61.87;99890.75;5051142;28;20039;-37
2022/01/15 04:04:32;;;;;;;7.55;3.80;;;;;;;6.64;61.06;99896.94;5051128;28;20024;-37
2022/01/15 04:06:57;;;;;;;5.85;3.30;;;;;;;6.96;60.54;99899.53;5051072;28;20033;-37
2022/01/15 04:09:22;;;;;;;6.93;3.83;;;;;;;6.48;61.18;99901.47;5051061;28;20029;-37
2022/01/15 04:11:48;;;;;;;6.30;3.65;;;;;;;6.38;62.12;99904.34;5051104;28;20020;-37
2022/01/15 04:14:13;;;;;;;6.70;3.60;;;;;;;6.31;62.03;99912.13;5050922;28;20017;-37
2022/01/15 04:16:39;;;;;;;7.45;3.80;;;;;;;6.71;61.25;99909.47;5050742;28;20560;-37
2022/01/15 04:19:08;;;;;;;8.20;4.40;;;;;;;6.62;61.34;99906.84;5050967;28;20021;-37
2022/01/15 04:21:34;;;;;;;6.32;3.90;;;;;;;6.74;60.89;99928.44;5050802;28;20032;-37
2022/01/15 04:23:59;;;;;;;6.90;4.10;;;;;;;6.93;60.42;99928.97;5051021;28;20392;-37
2022/01/15 04:26:26;;;;;;;5.32;3.55;;;;;;;7.02;59.91;99939.34;5050409;28;20075;-37
2022/01/15 04:28:52;;;;;;;7.22;4.15;;;;;;;7.30;59.30;99940.66;5050696;28;20108;-38
2022/01/15 04:31:18;;;;;;;7.40;4.07;;;;;;;7.08;59.41;99947.59;5050657;28;20546;-37
2022/01/15 04:33:43;;;;;;;6.75;3.90;;;;;;;7.39;58.88;99956.28;5051025;28;20025;-37
2022/01/15 04:36:11;;;;;;;8.50;4.13;;;;;;;7.19;59.04;99966.53;5050890;28;20028;-37
2022/01/15 04:38:38;;;;;;;7.20;3.97;;;;;;;7.24;58.61;99964.19;5050709;28;20032;-37
2022/01/15 04:41:07;;;;;;;7.20;4.35;;;;;;;7.08;59.05;99958.97;5050743;28;20107;-37
2022/01/15 04:43:33;;;;;;;7.50;4.25;;;;;;;7.03;59.54;99967.47;5050685;28;20860;-37
2022/01/15 04:45:58;;;;;;;7.47;4.38;;;;;;;6.97;59.65;99972.63;5050554;28;20112;-37
2022/01/15 04:48:24;;;;;;;7.05;4.30;;;;;;;7.11;59.14;99979.00;5050724;28;20484;-37
2022/01/15 04:50:49;;;;;;;8.25;3.92;;;;;;;6.73;60.17;99987.63;5050487;28;20029;-37
2022/01/15 04:53:15;;;;;;;6.60;3.67;;;;;;;7.13;59.00;99993.69;5050415;28;20028;-36
2022/01/15 04:55:40;;;;;;;7.57;4.15;;;;;;;6.91;59.54;99994.47;5050819;28;20029;-37
2022/01/15 04:58:06;;;;;;;7.03;4.30;;;;;;;7.16;58.97;100011.88;5050475;28;20400;-36
2022/01/15 05:00:32;;;;;;;7.55;4.30;;;;;;;7.22;58.96;100013.00;5048813;28;20033;-36
2022/01/15 05:02:57;;;;;;;9.73;4.47;;;;;;;7.10;58.72;100019.69;5050829;28;20032;-36
2022/01/15 05:05:24;;;;;;;7.90;4.40;;;;;;;7.10;58.99;100017.03;5050974;28;20033;-37
2022/01/15 05:07:52;;;;;;;6.45;4.18;;;;;;;7.55;57.61;100026.03;5050567;28;20524;-37
2022/01/15 05:10:19;;;;;;;7.22;4.70;;;;;;;7.45;57.97;100039.50;5050710;28;20091;-38
2022/01/15 05:12:47;;;;;;;8.00;4.63;;;;;;;7.37;58.46;100034.28;5050780;28;20108;-37
2022/01/15 05:15:13;;;;;;;8.75;4.78;;;;;;;7.41;58.12;100041.66;5050685;28;20086;-37
2022/01/15 05:17:39;;;;;;;7.82;4.70;;;;;;;7.36;58.43;100036.06;5050389;28;20047;-37
2022/01/15 05:20:05;;;;;;;9.73;4.80;;;;;;;7.22;59.02;100040.31;5050990;28;20025;-37
2022/01/15 05:22:32;;;;;;;8.80;4.85;;;;;;;7.18;58.74;100033.72;5050058;28;20473;-37
2022/01/15 05:24:58;;;;;;;9.30;5.15;;;;;;;7.04;59.55;100047.66;5050343;28;20017;-37
2022/01/15 05:27:23;;;;;;;10.43;5.65;;;;;;;7.29;58.81;100051.03;5050464;28;20400;-37
2022/01/15 05:29:49;;;;;;;9.15;5.35;;;;;;;7.30;59.25;100055.31;5050413;28;20025;-37
2022/01/15 05:32:14;;;;;;;8.40;5.10;;;;;;;7.19;58.85;100059.16;5050117;28;20029;-37
2022/01/15 05:34:40;;;;;;;8.68;5.03;;;;;;;7.20;59.10;100066.13;5050009;28;20071;-37
2022/01/15 05:37:05;;;;;;;9.88;5.40;;;;;;;7.48;58.46;100067.44;5050051;28;20025;-37
2022/01/15 05:39:31;;;;;;;11.05;5.18;;;;;;;7.16;59.48;100069.28;5051370;28;20025;-37
2022/01/15 05:41:57;;;;;;;9.63;5.32;;;;;;;7.22;59.19;100081.84;5053749;28;20029;-37
2022/01/15 05:44:22;;;;;;;9.02;5.38;;;;;;;7.29;59.56;100087.25;5053296;28;20103;-37
2022/01/15 05:46:48;;;;;;;10.40;5.35;;;;;;;7.03;60.08;100096.31;5053264;28;20032;-37
2022/01/15 05:49:13;;;;;;;9.60;5.70;;;;;;;7.12;60.24;100092.63;5053509;28;20040;-37
2022/01/15 05:51:39;;;;;;;10.13;5.72;;;;;;;7.11;59.61;100100.75;5053242;28;20469;-37
2022/01/15 05:54:10;;;;;;;14.27;7.60;;;;;;;6.93;60.25;100096.53;5053397;28;20107;-37
2022/01/15 05:56:35;;;;;;;16.02;8.10;;;;;;;6.71;61.25;100108.63;5053249;28;20068;-37
2022/01/15 05:59:01;;;;;;;14.02;7.22;;;;;;;7.00;60.76;100108.03;5053591;28;20056;-37
2022/01/15 06:01:26;;;;;;;12.30;6.45;;;;;;;6.93;60.29;100101.81;5053115;28;20025;-37
2022/01/15 06:03:52;;;;;;;12.35;6.95;;;;;;;7.05;60.48;100108.38;5052694;28;20032;-37
2022/01/15 06:06:17;;;;;;;16.42;7.82;;;;;;;7.17;59.81;100106.16;5052989;28;20032;-37
2022/01/15 06:08:43;;;;;;;25.27;13.23;;;;;;;7.30;59.66;100116.19;5052650;28;20057;-37
2022/01/15 06:11:10;;;;;;;23.13;11.20;;;;;;;7.30;58.84;100131.25;5052839;28;20028;-37
2022/01/15 06:13:35;;;;;;;16.65;8.23;;;;;;;7.22;59.41;100129.47;5052875;28;20029;-37
2022/01/15 06:16:01;;;;;;;15.50;7.80;;;;;;;7.14;59.96;100143.56;5053262;28;20028;-38
2022/01/15 06:18:26;;;;;;;18.30;9.00;;;;;;;6.91;59.32;100137.34;5052467;28;20481;-39
2022/01/15 06:20:51;;;;;;;16.25;8.05;;;;;;;7.01;59.34;100138.81;5052557;28;20048;-38
2022/01/15 06:23:17;;;;;;;12.80;7.20;;;;;;;6.92;59.43;100134.53;5052456;28;20029;-39
2022/01/15 06:25:42;;;;;;;13.18;7.28;;;;;;;6.82;60.53;100140.03;5052183;28;20029;-37
2022/01/15 06:28:08;;;;;;;19.48;10.40;;;;;;;6.99;59.23;100142.63;5052455;28;20412;-38
2022/01/15 06:30:33;;;;;;;16.90;7.78;;;;;;;7.02;59.48;100156.31;5052729;28;20021;-38
2022/01/15 06:32:59;;;;;;;10.13;6.68;;;;;;;7.19;59.50;100162.41;5052140;28;20029;-38
2022/01/15 06:35:24;;;;;;;10.85;6.15;;;;;;;7.23;59.27;100170.81;5051813;28;20041;-38
2022/01/15 06:37:50;;;;;;;12.15;6.70;;;;;;;7.21;59.01;100164.88;5051908;28;20033;-38
2022/01/15 06:40:15;;;;;;;13.05;6.25;;;;;;;7.14;59.15;100170.03;5051980;28;20078;-38
2022/01/15 06:42:41;;;;;;;15.70;8.85;;;;;;;7.53;57.88;100174.50;5051599;28;20390;-38
2022/01/15 06:45:07;;;;;;;16.13;8.70;;;;;;;7.94;56.52;100170.78;5051356;28;20025;-38
2022/01/15 06:47:32;;;;;;;14.40;7.57;;;;;;;7.62;56.90;100181.41;5051839;28;20024;-38
2022/01/15 06:49:58;;;;;;;10.10;6.10;;;;;;;7.31;57.52;100181.41;5051430;28;20055;-39
2022/01/15 06:52:24;;;;;;;12.05;6.80;;;;;;;7.19;58.42;100186.22;5051565;28;20033;-38
2022/01/15 06:54:50;;;;;;;13.98;7.25;;;;;;;7.21;58.16;100192.16;5051104;28;20461;-38
2022/01/15 06:57:15;;;;;;;12.65;7.18;;;;;;;7.10;58.83;100194.34;5051651;28;20040;-38
2022/01/15 06:59:44;;;;;;;13.52;7.43;;;;;;;7.53;57.63;100198.34;5051103;28;20036;-37
2022/01/15 07:02:10;;;;;;;14.70;7.78;;;;;;;7.66;56.99;100212.88;5050691;28;20029;-37
2022/01/15 07:04:36;;;;;;;11.05;6.63;;;;;;;7.53;57.33;100216.06;5051195;28;20017;-37
2022/01/15 07:07:02;;;;;;;15.73;7.28;;;;;;;7.10;58.86;100226.97;5050926;28;20365;-37
2022/01/15 07:09:27;;;;;;;11.65;7.03;;;;;;;7.24;58.68;100222.78;5051036;28;20029;-37
2022/01/15 07:11:52;;;;;;;10.90;6.40;;;;;;;7.17;58.66;100230.56;5051071;28;20550;-38
2022/01/15 07:14:18;;;;;;;10.93;6.45;;;;;;;7.11;59.08;100239.19;5051077;28;20032;-38
2022/01/15 07:16:43;;;;;;;14.02;8.35;;;;;;;6.97;59.24;100235.41;5050814;28;20029;-37
2022/01/15 07:19:09;;;;;;;35.72;16.58;;;;;;;7.09;59.23;100240.38;5050795;28;20028;-38
2022/01/15 07:21:34;;;;;;;13.95;6.93;;;;;;;7.59;57.94;100237.38;5050640;28;20021;-38
2022/01/15 07:24:00;;;;;;;13.70;7.05;;;;;;;7.89;56.62;100237.59;5049339;28;20107;-38
2022/01/15 07:26:25;;;;;;;14.93;8.52;;;;;;;7.61;57.45;100232.72;5050690;28;20078;-37
2022/01/15 07:28:51;;;;;;;20.38;10.68;;;;;;;7.31;58.03;100217.63;5050878;28;20353;-38
2022/01/15 07:31:16;;;;;;;22.13;11.30;;;;;;;7.29;58.00;100240.78;5050619;28;20082;-38
2022/01/15 07:33:42;;;;;;;20.90;10.25;;;;;;;7.43;58.83;100256.00;5050373;28;20028;-38
2022/01/15 07:36:07;;;;;;;19.58;9.35;;;;;;;7.30;59.24;100268.94;5050334;28;20087;-37
2022/01/15 07:38:33;;;;;;;16.58;8.50;;;;;;;7.12;58.96;100274.41;5050299;28;20036;-37
2022/01/15 07:40:59;;;;;;;14.52;7.60;;;;;;;7.75;57.57;100278.88;5050280;28;20377;-38
2022/01/15 07:43:26;;;;;;;13.63;7.47;;;;;;;8.11;56.91;100281.03;5050363;28;20047;-38
2022/01/15 07:45:51;;;;;;;13.55;7.78;;;;;;;7.89;57.04;100281.81;5050509;28;20032;-38
2022/01/15 07:48:17;;;;;;;16.58;7.85;;;;;;;7.69;57.70;100298.13;5050495;28;20071;-38
2022/01/15 07:50:43;;;;;;;16.58;8.85;;;;;;;7.73;58.05;100288.84;5050900;28;20102;-38
2022/01/15 07:53:09;;;;;;;18.13;9.13;;;;;;;7.78;57.62;100281.19;5050125;28;20067;-38
2022/01/15 07:55:34;;;;;;;15.85;8.90;;;;;;;7.61;58.61;100298.13;5045757;28;20124;-37
2022/01/15 07:58:01;;;;;;;17.50;9.38;;;;;;;7.76;58.46;100296.41;5049664;28;20036;-38
2022/01/15 08:00:26;;;;;;;16.17;8.82;;;;;;;7.55;58.47;100293.53;5049987;28;20028;-37
2022/01/15 08:02:54;;;;;;;16.90;9.15;;;;;;;7.61;58.27;100304.25;5049673;28;20032;-37
2022/01/15 08:05:19;;;;;;;16.88;8.88;;;;;;;7.71;57.68;100316.47;5050067;28;20087;-38
2022/01/15 08:07:45;;;;;;;15.38;8.60;;;;;;;7.63;58.19;100315.53;5050002;28;20049;-37
2022/01/15 08:10:10;;;;;;;19.60;8.63;;;;;;;7.50;58.13;100317.88;5050152;28;20029;-38
2022/01/15 08:12:51;;;;;;;17.00;8.43;;;;;;;7.52;58.44;100328.28;5050139;28;20035;-37
2022/01/15 08:15:18;;;;;;;15.07;8.18;;;;;;;8.10;56.64;100328.94;5046016;28;20056;-38
2022/01/15 08:17:43;;;;;;;20.98;8.52;;;;;;;8.26;56.47;100335.97;5050260;28;20405;-37
2022/01/15 08:20:09;;;;;;;30.33;9.82;;;;;;;8.15;56.93;100313.34;5049587;28;20035;-39
2022/01/15 08:22:35;;;;;;;18.05;8.27;;;;;;;8.24;56.22;100336.13;5049654;28;20017;-38
2022/01/15 08:25:00;;;;;;;15.98;8.15;;;;;;;7.98;57.02;100339.09;5049534;28;20408;-49
2022/01/15 08:27:26;;;;;;;20.40;8.63;;;;;;;8.07;57.30;100343.34;5042592;28;20029;-48
2022/01/15 08:29:51;;;;;;;17.77;9.27;;;;;;;8.09;57.48;100333.41;5040989;28;20426;-51
2022/01/15 08:32:17;;;;;;;24.77;11.50;;;;;;;8.14;57.33;100339.00;5048446;28;20024;-50
2022/01/15 08:34:43;;;;;;;20.60;11.63;;;;;;;8.16;57.11;100334.34;5048420;28;20023;-47
2022/01/15 08:37:09;;;;;;;19.60;10.18;;;;;;;8.21;57.57;100341.81;5049972;28;20029;-47
2022/01/15 08:39:35;;;;;;;22.35;11.88;;;;;;;8.04;57.80;100362.25;5050162;28;20528;-49
2022/01/15 08:42:02;;;;;;;23.83;12.50;;;;;;;8.00;58.69;100363.59;5046082;28;20028;-50
2022/01/15 08:44:28;;;;;;;20.25;11.35;;;;;;;7.91;57.50;100362.78;5043743;28;20516;-52
2022/01/15 08:46:53;;;;;;;22.52;11.43;;;;;;;7.89;57.71;100361.31;5049856;28;20021;-49
2022/01/15 08:49:19;;;;;;;18.58;9.63;;;;;;;7.99;58.18;100367.22;5049879;28;20031;-52
2022/01/15 08:51:44;;;;;;;20.90;10.43;;;;;;;7.95;57.42;100373.88;5042203;28;20025;-50
2022/01/15 08:54:10;;;;;;;63.78;28.50;;;;;;;7.79;58.07;100364.97;5047297;28;20487;-50
2022/01/15 08:56:35;;;;;;;25.10;13.57;;;;;;;7.77;58.02;100369.63;5049231;28;20200;-48
2022/01/15 08:59:02;;;;;;;19.73;10.05;;;;;;;7.64;58.18;100364.03;5048620;28;20033;-49
2022/01/15 09:01:28;;;;;;;17.15;9.82;;;;;;;7.54;59.32;100363.38;5048555;28;20028;-48
2022/01/15 09:03:55;;;;;;;15.30;8.95;;;;;;;7.64;58.61;100356.91;5048365;28;20025;-48
2022/01/15 09:06:21;;;;;;;18.15;9.40;;;;;;;7.72;59.02;100365.84;5048429;28;20025;-49
2022/01/15 09:08:47;;;;;;;24.52;9.85;;;;;;;7.87;58.70;100365.97;5048697;28;20055;-48
2022/01/15 09:11:12;;;;;;;30.42;10.68;;;;;;;8.25;57.85;100353.72;5048437;28;20400;-48
2022/01/15 09:13:38;;;;;;;21.98;10.43;;;;;;;8.35;57.05;100364.91;5050584;28;20033;-48
2022/01/15 09:16:03;;;;;;;16.08;9.63;;;;;;;8.32;57.92;100353.81;5052336;28;20033;-49
2022/01/15 09:18:29;;;;;;;21.77;10.32;;;;;;;8.09;58.46;100361.72;5052269;28;20025;-49
2022/01/15 09:20:55;;;;;;;19.70;10.00;;;;;;;8.14;58.35;100359.38;5052249;28;20025;-48
2022/01/15 09:23:20;;;;;;;20.17;10.80;;;;;;;8.13;58.45;100355.94;5052923;28;20033;-51
2022/01/15 09:25:46;;;;;;;20.05;10.30;;;;;;;8.01;58.80;100362.59;5068301;28;20074;-49
2022/01/15 09:30:55;;;;;;;19.60;10.35;;;;;;;8.65;57.12;100364.31;5055055;28;20063;-50
2022/01/15 09:33:21;;;;;;;18.27;10.10;;;;;;;8.84;56.28;100361.19;5047858;28;20116;-49
2022/01/15 09:35:46;;;;;;;17.83;9.95;;;;;;;8.57;56.83;100355.38;5054430;28;20064;-49
2022/01/15 09:38:14;;;;;;;15.90;9.88;;;;;;;8.36;57.26;100355.97;5067945;28;20115;-51
2022/01/15 09:40:41;;;;;;;20.67;10.68;;;;;;;8.29;57.83;100357.66;5062058;28;20357;-51
2022/01/15 09:43:06;;;;;;;20.52;10.13;;;;;;;8.56;57.34;100358.22;5060786;28;20060;-49
2022/01/15 09:45:35;;;;;;;17.75;10.45;;;;;;;8.50;57.25;100350.97;5068430;28;20075;-49
2022/01/15 09:48:01;;;;;;;18.15;9.77;;;;;;;8.07;57.93;100345.97;5056050;28;20465;-49
2022/01/15 09:50:28;;;;;;;17.50;10.07;;;;;;;8.67;56.75;100346.38;5065491;28;20025;-51
2022/01/15 09:52:54;;;;;;;20.83;9.82;;;;;;;8.99;55.43;100351.44;5063222;28;20443;-52
2022/01/15 09:55:21;;;;;;;19.73;11.57;;;;;;;8.93;55.37;100346.84;5067514;28;20032;-52
2022/01/15 09:57:46;;;;;;;20.30;10.52;;;;;;;8.81;55.85;100348.25;5055675;28;20021;-51
2022/01/15 10:00:15;;;;;;;17.30;10.20;;;;;;;8.53;56.56;100345.28;5067574;28;20032;-49
2022/01/15 10:02:44;;;;;;;18.23;10.98;;;;;;;8.75;56.09;100335.69;5061046;28;20021;-50
2022/01/15 10:05:10;;;;;;;22.75;11.27;;;;;;;8.93;56.74;100340.69;5059091;28;20024;-49
2022/01/15 10:07:36;;;;;;;25.17;12.65;;;;;;;9.05;56.25;100343.78;5061446;28;20036;-52
2022/01/15 10:10:20;;;;;;;18.48;10.35;;;;;;;9.49;54.52;100322.59;5032492;28;20048;-50
2022/01/15 10:12:46;;;;;;;14.88;9.57;;;;;;;9.48;54.34;100331.59;5051408;28;20016;-49
2022/01/15 10:15:12;;;;;;;18.70;9.93;;;;;;;9.47;54.58;100332.59;5059148;28;20455;-50
2022/01/15 10:17:38;;;;;;;18.65;9.10;;;;;;;9.03;55.86;100329.84;5068823;28;20027;-51
2022/01/15 10:20:14;;;;;;;16.67;8.85;;;;;;;9.53;54.89;100321.22;5053641;28;20105;-50
2022/01/15 10:22:41;;;;;;;16.60;9.30;;;;;;;9.33;54.50;100315.63;5051670;28;20029;-52
2022/01/15 10:25:10;;;;;;;15.30;8.35;;;;;;;10.50;66.25;100322.84;5051922;28;20674;-51
2022/01/15 10:27:40;;;;;;;14.65;8.05;;;;;;;10.93;50.63;100314.06;5052168;28;20032;-51
2022/01/15 10:30:08;;;;;;;17.65;9.23;;;;;;;10.87;50.31;100312.16;5049500;28;20029;-51
2022/01/15 10:32:36;;;;;;;15.57;8.90;;;;;;;10.83;50.88;100309.03;5052015;28;20100;-49
2022/01/15 10:35:15;;;;;;;17.60;9.38;;;;;;;10.44;51.50;100310.31;5051394;28;20112;-52
2022/01/15 10:38:00;;;;;;;15.80;8.18;;;;;;;10.29;51.43;100298.88;5051392;28;20017;-51
2022/01/15 10:40:38;;;;;;;15.90;8.55;;;;;;;10.31;51.26;100303.00;5052466;28;20025;-49
2022/01/15 10:43:03;;;;;;;15.70;8.35;;;;;;;10.56;50.52;100305.31;5051875;28;20393;-50
2022/01/15 10:45:31;;;;;;;18.75;9.18;;;;;;;10.59;50.67;100298.81;5053825;28;20021;-50
2022/01/15 10:47:57;;;;;;;15.27;8.38;;;;;;;10.24;50.99;100290.63;5055752;28;20039;-49
2022/01/15 10:50:36;;;;;;;13.38;7.95;;;;;;;10.35;51.12;100288.31;5053310;28;20017;-51
2022/01/15 10:53:10;;;;;;;16.48;8.75;;;;;;;10.41;50.62;100284.06;5051119;28;20528;-50
2022/01/15 10:55:35;;;;;;;14.80;9.00;;;;;;;10.95;49.71;100280.06;5053543;28;20043;-48
2022/01/15 10:58:03;;;;;;;17.27;8.13;;;;;;;10.81;49.97;100281.78;5052508;28;20469;-48
2022/01/15 11:00:42;;;;;;;20.73;11.82;;;;;;;10.78;49.48;100276.88;5065255;28;20023;-48
2022/01/15 11:03:09;;;;;;;19.73;9.63;;;;;;;10.99;49.37;100277.84;5056953;28;20049;-50
2022/01/15 11:05:35;;;;;;;16.50;8.27;;;;;;;11.32;48.37;100276.22;5067566;28;20081;-50
2022/01/15 11:08:13;;;;;;;15.77;8.95;;;;;;;11.32;48.78;100270.91;5038365;28;20070;-50
2022/01/15 11:10:40;;;;;;;14.07;7.80;;;;;;;11.13;49.31;100272.41;5062605;28;20021;-50
2022/01/15 11:13:10;;;;;;;15.23;8.07;;;;;;;11.21;48.74;100267.97;5056700;28;20171;-50
2022/01/15 11:15:36;;;;;;;14.90;8.57;;;;;;;10.83;48.57;100266.44;5067473;28;20388;-39
2022/01/15 11:18:02;;;;;;;14.27;8.43;;;;;;;10.82;49.54;100274.66;5054452;28;20024;-38
2022/01/15 11:20:30;;;;;;;14.68;8.50;;;;;;;10.89;49.18;100280.81;5063789;28;20025;-37
2022/01/15 11:22:55;;;;;;;15.75;7.90;;;;;;;10.85;48.70;100274.25;5061082;28;20047;-38
2022/01/15 11:25:21;;;;;;;18.02;11.27;;;;;;;10.81;49.03;100272.97;5055303;28;20020;-38
2022/01/15 11:27:46;;;;;;;32.55;19.95;;;;;;;10.77;48.72;100269.88;5065884;28;20026;-38
2022/01/15 11:30:12;;;;;;;12.85;8.07;;;;;;;10.64;48.81;100265.28;5037931;28;20032;-38
2022/01/15 11:32:38;;;;;;;15.00;8.57;;;;;;;10.37;49.07;100232.25;5060941;28;20028;-38
2022/01/15 11:35:08;;;;;;;14.95;7.90;;;;;;;10.54;49.16;100268.25;5033649;28;20131;-48
2022/01/15 11:37:40;;;;;;;11.50;6.90;;;;;;;10.30;48.54;100258.81;5066120;28;20027;-37
2022/01/15 11:40:27;;;;;;;13.60;7.13;;;;;;;10.29;49.25;100258.97;5039276;28;20487;-38
2022/01/15 11:42:52;;;;;;;11.70;7.53;;;;;;;10.15;49.65;100256.16;5060029;28;20708;-37
2022/01/15 11:45:35;;;;;;;14.77;7.85;;;;;;;10.41;49.58;100254.00;5064763;28;20040;-37
2022/01/15 11:48:23;;;;;;;13.98;8.10;;;;;;;10.76;49.71;100257.59;5053662;28;20025;-38
2022/01/15 11:51:27;;;;;;;12.77;8.32;;;;;;;11.25;48.09;100248.75;5070955;28;20040;-38